Time;durP1;ratioP1;P1;durP2;ratioP2;P2;SDS_P1;SDS_P2;PMS_P1;PMS_P2;Temp;Humidity;BMP_temperature;BMP_pressure;BME280_temperature;BME280_humidity;BME280_pressure;Samples;Min_cycle;Max_cycle;Signal;HPM_P1;HPM_P2
2022/01/08 00:01:12;;;;;;;;;;;3.00;99.90;;;;;;4981265;28;19972;-49
2022/01/08 00:03:39;;;;;;;;;;;3.00;99.90;;;;;;4969989;28;19914;-49
2022/01/08 00:06:08;;;;;;;;;;;3.00;99.90;;;;;;4976699;28;20483;-46
2022/01/08 00:08:35;;;;;;;;;;;3.00;99.90;;;;;;4979858;28;19914;-46
2022/01/08 00:11:02;;;;;;;;;;;2.90;99.90;;;;;;4963088;28;20171;-47
2022/01/08 00:13:29;;;;;;;;;;;2.90;99.90;;;;;;4946520;28;19924;-48
2022/01/08 00:15:56;;;;;;;;;;;2.90;99.90;;;;;;4982161;28;20272;-48
2022/01/08 00:18:23;;;;;;;;;;;2.90;99.90;;;;;;4964422;28;19996;-50
2022/01/08 00:20:51;;;;;;;;;;;2.80;99.90;;;;;;4977944;28;20316;-50
2022/01/08 00:23:17;;;;;;;;;;;2.90;99.90;;;;;;4962475;28;19914;-47
2022/01/08 00:25:44;;;;;;;;;;;2.80;99.90;;;;;;4965823;28;19910;-48
2022/01/08 00:28:11;;;;;;;;;;;2.80;99.90;;;;;;4967686;28;20008;-54
2022/01/08 00:30:37;;;;;;;;;;;2.80;99.90;;;;;;4977713;28;19906;-49
2022/01/08 00:33:04;;;;;;;;;;;2.80;99.90;;;;;;4981392;28;20036;-51
2022/01/08 00:35:32;;;;;;;;;;;2.80;99.90;;;;;;4987649;28;19976;-54
2022/01/08 00:38:00;;;;;;;;;;;2.80;99.90;;;;;;4960794;28;19929;-49
2022/01/08 00:40:27;;;;;;;;;;;2.80;99.90;;;;;;4990737;28;19933;-48
2022/01/08 00:42:54;;;;;;;;;;;2.80;99.90;;;;;;4989067;28;20257;-48
2022/01/08 00:45:21;;;;;;;;;;;2.80;99.90;;;;;;4962760;28;19910;-47
2022/01/08 00:47:48;;;;;;;;;;;2.80;99.90;;;;;;4972040;28;20180;-48
2022/01/08 00:50:14;;;;;;;;;;;2.80;99.90;;;;;;4981384;28;19929;-50
2022/01/08 00:52:41;;;;;;;;;;;2.80;99.90;;;;;;4998278;28;20182;-51
2022/01/08 00:55:08;;;;;;;;;;;2.80;99.90;;;;;;4997904;28;19920;-48
2022/01/08 00:57:35;;;;;;;;;;;2.70;99.90;;;;;;4981250;28;19956;-51
2022/01/08 01:00:01;;;;;;;;;;;2.70;99.90;;;;;;4980395;28;19921;-49
2022/01/08 01:02:28;;;;;;;;;;;2.70;99.90;;;;;;4997805;28;19910;-51
2022/01/08 01:04:54;;;;;;;;;;;2.70;99.90;;;;;;4980584;28;20254;-49
2022/01/08 01:07:21;;;;;;;;;;;2.70;99.90;;;;;;4997854;28;19916;-47
2022/01/08 01:09:48;;;;;;;;;;;2.70;99.90;;;;;;4997975;28;19976;-50
2022/01/08 01:12:15;;;;;;;;;;;2.60;99.90;;;;;;4980275;28;19928;-49
2022/01/08 01:14:41;;;;;;;;;;;2.60;99.90;;;;;;4980266;28;20255;-49
2022/01/08 01:17:07;;;;;;;;;;;2.60;99.90;;;;;;4980694;28;19906;-47
2022/01/08 01:19:35;;;;;;;;;;;2.70;99.90;;;;;;4980513;28;20000;-50
2022/01/08 01:22:03;;;;;;;;;;;2.70;99.90;;;;;;4980180;28;20499;-47
2022/01/08 01:24:31;;;;;;;;;;;2.70;99.90;;;;;;4997264;28;20012;-48
2022/01/08 01:29:40;;;;;;;;;;;2.70;99.90;;;;;;4997847;28;19910;-51
2022/01/08 01:48:24;;;;;;;;;;;2.80;99.90;;;;;;4978312;28;20322;-47
2022/01/08 01:50:51;;;;;;;;;;;2.70;99.90;;;;;;4979886;28;19906;-48
2022/01/08 01:53:18;;;;;;;;;;;2.80;99.90;;;;;;4979669;28;19992;-48
2022/01/08 01:55:45;;;;;;;;;;;2.70;99.90;;;;;;4978673;28;20178;-49
2022/01/08 01:58:19;;;;;;;;;;;2.80;99.90;;;;;;4979821;28;20566;-49
2022/01/08 02:00:48;;;;;;;;;;;2.80;99.90;;;;;;4997542;28;19909;-49
2022/01/08 02:03:13;;;;;;;;;;;2.70;99.90;;;;;;4980870;28;19925;-47
2022/01/08 02:05:40;;;;;;;;;;;2.70;99.90;;;;;;4981497;28;19905;-50
2022/01/08 02:08:09;;;;;;;;;;;2.60;99.90;;;;;;4980894;28;19981;-48
2022/01/08 02:10:35;;;;;;;;;;;2.70;99.90;;;;;;4980821;28;19916;-47
2022/01/08 02:13:01;;;;;;;;;;;2.70;99.90;;;;;;4980024;28;19909;-48
2022/01/08 02:15:28;;;;;;;;;;;2.70;99.90;;;;;;4980754;28;19996;-47
2022/01/08 02:17:55;;;;;;;;;;;2.80;99.90;;;;;;4981398;28;19906;-50
2022/01/08 02:20:22;;;;;;;;;;;2.80;99.90;;;;;;4980694;28;19905;-48
2022/01/08 02:22:48;;;;;;;;;;;2.90;99.90;;;;;;4996385;28;19909;-48
2022/01/08 02:25:20;;;;;;;;;;;2.80;99.90;;;;;;4979732;28;20295;-50
2022/01/08 02:27:47;;;;;;;;;;;2.80;99.90;;;;;;4976748;28;19973;-49
2022/01/08 02:30:14;;;;;;;;;;;2.80;99.90;;;;;;4980615;28;20009;-50
2022/01/08 02:32:41;;;;;;;;;;;2.80;99.90;;;;;;4981088;28;19916;-48
2022/01/08 02:35:08;;;;;;;;;;;2.80;99.90;;;;;;4980662;28;20484;-48
2022/01/08 02:37:35;;;;;;;;;;;2.80;99.90;;;;;;4998068;28;19960;-49
2022/01/08 02:40:04;;;;;;;;;;;2.80;99.90;;;;;;4979971;28;19948;-49
2022/01/08 02:42:38;;;;;;;;;;;2.70;99.90;;;;;;4979314;28;20000;-51
2022/01/08 02:45:05;;;;;;;;;;;2.80;99.90;;;;;;4979915;28;19921;-49
2022/01/08 02:47:32;;;;;;;;;;;2.80;99.90;;;;;;4980029;28;19925;-50
2022/01/08 02:49:59;;;;;;;;;;;2.80;99.90;;;;;;4979685;28;20329;-49
2022/01/08 02:52:26;;;;;;;;;;;2.80;99.90;;;;;;4979810;28;19910;-50
2022/01/08 02:54:53;;;;;;;;;;;2.80;99.90;;;;;;4979729;28;19905;-49
2022/01/08 02:57:20;;;;;;;;;;;2.70;99.90;;;;;;4982098;28;19909;-48
2022/01/08 02:59:46;;;;;;;;;;;2.60;99.90;;;;;;4969202;28;19913;-49
2022/01/08 03:02:13;;;;;;;;;;;2.60;99.90;;;;;;5000410;28;20453;-48
2022/01/08 03:04:40;;;;;;;;;;;2.70;99.90;;;;;;4983517;28;19964;-47
2022/01/08 03:07:07;;;;;;;;;;;2.70;99.90;;;;;;4983538;28;19921;-47
2022/01/08 03:09:39;;;;;;;;;;;2.70;99.90;;;;;;5000697;28;19905;-49
2022/01/08 03:12:07;;;;;;;;;;;2.70;99.90;;;;;;4983268;28;19909;-48
2022/01/08 03:14:33;;;;;;;;;;;2.70;99.90;;;;;;5001265;28;19972;-48
2022/01/08 03:17:00;;;;;;;;;;;2.70;99.90;;;;;;4984371;28;19910;-47
2022/01/08 03:19:26;;;;;;;;;;;2.70;99.90;;;;;;5001150;28;20151;-49
2022/01/08 03:21:55;;;;;;;;;;;2.60;99.90;;;;;;4983695;28;19913;-48
2022/01/08 03:24:27;;;;;;;;;;;2.60;99.90;;;;;;4983009;28;19914;-47
2022/01/08 03:26:54;;;;;;;;;;;2.70;99.90;;;;;;4983087;28;19913;-48
2022/01/08 03:29:21;;;;;;;;;;;2.70;99.90;;;;;;4984513;28;19988;-47
2022/01/08 03:31:48;;;;;;;;;;;2.70;99.90;;;;;;4983943;28;19906;-51
2022/01/08 03:34:15;;;;;;;;;;;2.70;99.90;;;;;;4982107;28;19913;-50
2022/01/08 03:36:42;;;;;;;;;;;2.70;99.90;;;;;;4981257;28;20222;-50
2022/01/08 03:39:09;;;;;;;;;;;2.60;99.90;;;;;;4982807;28;19917;-47
2022/01/08 03:41:35;;;;;;;;;;;2.60;99.90;;;;;;4983080;28;19910;-50
2022/01/08 03:44:03;;;;;;;;;;;2.70;99.90;;;;;;4983994;28;19913;-50
2022/01/08 03:46:34;;;;;;;;;;;2.70;99.90;;;;;;4982657;28;19917;-47
2022/01/08 03:51:28;;;;;;;;;;;2.70;99.90;;;;;;4999637;28;19906;-50
2022/01/08 03:53:55;;;;;;;;;;;2.70;99.90;;;;;;4983189;28;19921;-50
2022/01/08 03:56:22;;;;;;;;;;;2.70;99.90;;;;;;4982056;28;19906;-47
2022/01/08 03:58:49;;;;;;;;;;;2.70;99.90;;;;;;4983190;28;20294;-47
2022/01/08 04:01:15;;;;;;;;;;;2.70;99.90;;;;;;4982804;28;20004;-52
2022/01/08 04:03:42;;;;;;;;;;;2.70;99.90;;;;;;4982422;28;19905;-49
2022/01/08 04:06:09;;;;;;;;;;;2.60;99.90;;;;;;4982589;28;19914;-52
2022/01/08 04:08:36;;;;;;;;;;;2.50;99.90;;;;;;4982662;28;19909;-46
2022/01/08 04:11:02;;;;;;;;;;;2.50;99.90;;;;;;4999010;28;19992;-49
2022/01/08 04:13:31;;;;;;;;;;;2.50;99.90;;;;;;4981944;28;20024;-47
2022/01/08 04:16:08;;;;;;;;;;;2.60;99.90;;;;;;4983029;28;20290;-50
2022/01/08 04:18:34;;;;;;;;;;;2.60;99.90;;;;;;4982788;28;19910;-49
2022/01/08 04:23:30;;;;;;;;;;;2.50;99.90;;;;;;4999111;28;19940;-49
2022/01/08 04:25:57;;;;;;;;;;;2.50;99.90;;;;;;4982813;28;19945;-49
2022/01/08 04:28:24;;;;;;;;;;;2.50;99.90;;;;;;4999673;28;19920;-50
2022/01/08 04:30:51;;;;;;;;;;;2.50;99.90;;;;;;4983341;28;19909;-47
2022/01/08 04:33:18;;;;;;;;;;;2.50;99.90;;;;;;4983313;28;20293;-50
2022/01/08 04:35:45;;;;;;;;;;;2.40;99.90;;;;;;4982324;28;19941;-48
2022/01/08 04:38:12;;;;;;;;;;;2.40;99.90;;;;;;4981843;28;19906;-50
2022/01/08 04:40:40;;;;;;;;;;;2.50;99.90;;;;;;4981782;28;19920;-51
2022/01/08 04:43:25;;;;;;;;;;;2.50;99.90;;;;;;4982102;28;19920;-51
2022/01/08 04:45:52;;;;;;;;;;;2.50;99.90;;;;;;4982087;28;19906;-47
2022/01/08 04:48:19;;;;;;;;;;;2.50;99.90;;;;;;4981511;28;19937;-52
2022/01/08 04:50:45;;;;;;;;;;;2.40;99.90;;;;;;4982074;28;19910;-51
2022/01/08 04:53:11;;;;;;;;;;;2.50;99.90;;;;;;4981784;28;19909;-49
2022/01/08 04:55:38;;;;;;;;;;;2.60;99.90;;;;;;4981135;28;20336;-48
2022/01/08 04:58:04;;;;;;;;;;;2.50;99.90;;;;;;4981468;28;19909;-49
2022/01/08 05:00:30;;;;;;;;;;;2.50;99.90;;;;;;4981583;28;19914;-51
2022/01/08 05:02:55;;;;;;;;;;;2.50;99.90;;;;;;4980897;28;19916;-47
2022/01/08 05:05:22;;;;;;;;;;;2.50;99.90;;;;;;4981001;28;19925;-48
2022/01/08 05:07:49;;;;;;;;;;;2.60;99.90;;;;;;4981056;28;19913;-47
2022/01/08 05:10:15;;;;;;;;;;;2.60;99.90;;;;;;4981562;28;19913;-50
2022/01/08 05:12:42;;;;;;;;;;;2.60;99.90;;;;;;4981767;28;20281;-48
2022/01/08 05:15:09;;;;;;;;;;;2.60;99.90;;;;;;4981313;28;19909;-53
2022/01/08 05:17:38;;;;;;;;;;;2.50;99.90;;;;;;4980462;28;19922;-49
2022/01/08 05:20:06;;;;;;;;;;;2.50;99.90;;;;;;4979093;28;20187;-50
2022/01/08 05:22:51;;;;;;;;;;;2.50;99.90;;;;;;4981040;28;19964;-47
2022/01/08 05:25:21;;;;;;;;;;;2.60;99.90;;;;;;4981366;28;20000;-48
2022/01/08 05:27:48;;;;;;;;;;;2.50;99.90;;;;;;4981164;28;19918;-50
2022/01/08 05:30:17;;;;;;;;;;;2.60;99.90;;;;;;4980587;28;20494;-49
2022/01/08 05:32:44;;;;;;;;;;;2.50;99.90;;;;;;4980741;28;19952;-50
2022/01/08 05:35:11;;;;;;;;;;;2.50;99.90;;;;;;4997034;28;20190;-51
2022/01/08 05:37:38;;;;;;;;;;;2.50;99.90;;;;;;4978802;28;19909;-47
2022/01/08 05:40:05;;;;;;;;;;;2.60;99.90;;;;;;4978959;28;19932;-47
2022/01/08 05:42:31;;;;;;;;;;;2.60;99.90;;;;;;4978070;28;20278;-48
2022/01/08 05:44:58;;;;;;;;;;;2.60;99.90;;;;;;4979124;28;19905;-49
2022/01/08 05:47:29;;;;;;;;;;;2.60;99.90;;;;;;4979110;28;19924;-51
2022/01/08 05:49:56;;;;;;;;;;;2.60;99.90;;;;;;4979154;28;19916;-52
2022/01/08 05:52:21;;;;;;;;;;;2.70;99.90;;;;;;4979297;28;19909;-49
2022/01/08 05:54:48;;;;;;;;;;;2.60;99.90;;;;;;4979564;28;19917;-51
2022/01/08 05:57:15;;;;;;;;;;;2.60;99.90;;;;;;4979805;28;19910;-48
2022/01/08 05:59:42;;;;;;;;;;;2.60;99.90;;;;;;4979583;28;19912;-52
2022/01/08 06:02:09;;;;;;;;;;;2.60;99.90;;;;;;4995014;28;19925;-51
2022/01/08 06:04:36;;;;;;;;;;;2.60;99.90;;;;;;4977400;28;20143;-48
2022/01/08 06:07:03;;;;;;;;;;;2.60;99.90;;;;;;4977087;28;19910;-48
2022/01/08 06:09:29;;;;;;;;;;;2.60;99.90;;;;;;4978085;28;19906;-47
2022/01/08 06:11:56;;;;;;;;;;;2.60;99.90;;;;;;4995508;28;19917;-50
2022/01/08 06:14:23;;;;;;;;;;;2.60;99.90;;;;;;4979205;28;19910;-48
2022/01/08 06:16:49;;;;;;;;;;;2.60;99.90;;;;;;4980007;28;19949;-49
2022/01/08 06:19:16;;;;;;;;;;;2.60;99.90;;;;;;4996582;28;20262;-51
2022/01/08 06:21:41;;;;;;;;;;;2.70;99.90;;;;;;4980026;28;19921;-47
2022/01/08 06:24:08;;;;;;;;;;;2.70;99.90;;;;;;4979997;28;19913;-47
2022/01/08 06:26:35;;;;;;;;;;;2.60;99.90;;;;;;4979111;28;19920;-48
2022/01/08 06:29:02;;;;;;;;;;;2.70;99.90;;;;;;4979093;28;20336;-46
2022/01/08 06:31:29;;;;;;;;;;;2.70;99.90;;;;;;4995886;28;19906;-47
2022/01/08 06:33:56;;;;;;;;;;;2.70;99.90;;;;;;4978941;28;19992;-48
2022/01/08 06:36:23;;;;;;;;;;;2.70;99.90;;;;;;4962941;28;20278;-46
2022/01/08 06:38:49;;;;;;;;;;;2.70;99.90;;;;;;4995882;28;20005;-45
2022/01/08 06:41:16;;;;;;;;;;;2.60;99.90;;;;;;4995936;28;20313;-48
2022/01/08 06:43:42;;;;;;;;;;;2.60;99.90;;;;;;4995652;28;19916;-47
2022/01/08 06:46:09;;;;;;;;;;;2.70;99.90;;;;;;4978317;28;19944;-48
2022/01/08 06:48:36;;;;;;;;;;;2.70;99.90;;;;;;4978359;28;20008;-50
2022/01/08 06:51:03;;;;;;;;;;;2.70;99.90;;;;;;4996300;28;19937;-47
2022/01/08 06:53:30;;;;;;;;;;;2.70;99.90;;;;;;4979193;28;20342;-48
2022/01/08 06:55:57;;;;;;;;;;;2.70;99.90;;;;;;4996652;28;19932;-45
2022/01/08 06:58:26;;;;;;;;;;;2.70;99.90;;;;;;4979200;28;19906;-48
2022/01/08 07:00:52;;;;;;;;;;;2.60;99.90;;;;;;4995929;28;19914;-45
2022/01/08 07:03:19;;;;;;;;;;;2.70;99.90;;;;;;4995895;28;19909;-46
2022/01/08 07:05:46;;;;;;;;;;;2.70;99.90;;;;;;4978608;28;19905;-49
2022/01/08 07:08:14;;;;;;;;;;;2.70;99.90;;;;;;4994308;28;20003;-48
2022/01/08 07:10:41;;;;;;;;;;;2.70;99.90;;;;;;4995218;28;20064;-47
2022/01/08 07:13:08;;;;;;;;;;;2.70;99.90;;;;;;4994675;28;20198;-48
2022/01/08 07:15:33;;;;;;;;;;;2.60;99.90;;;;;;4961493;28;19925;-47
2022/01/08 07:17:59;;;;;;;;;;;2.60;99.90;;;;;;4978918;28;19917;-47
2022/01/08 07:20:27;;;;;;;;;;;2.60;99.90;;;;;;4980081;28;19906;-52
2022/01/08 07:22:52;;;;;;;;;;;2.70;99.90;;;;;;4978180;28;19992;-49
2022/01/08 07:25:19;;;;;;;;;;;2.70;99.90;;;;;;4993629;28;20001;-49
2022/01/08 07:27:46;;;;;;;;;;;2.60;99.90;;;;;;4996007;28;19929;-47
2022/01/08 07:30:12;;;;;;;;;;;2.60;99.90;;;;;;4995632;28;20354;-49
2022/01/08 07:32:43;;;;;;;;;;;2.60;99.90;;;;;;4995608;28;20198;-50
2022/01/08 07:35:11;;;;;;;;;;;2.60;99.90;;;;;;4978302;28;19906;-51
2022/01/08 07:37:38;;;;;;;;;;;2.70;99.90;;;;;;4978800;28;20254;-47
2022/01/08 07:40:05;;;;;;;;;;;2.70;99.90;;;;;;4978724;28;21373;-48
2022/01/08 07:42:30;;;;;;;;;;;2.80;99.90;;;;;;4979558;28;20001;-47
2022/01/08 07:44:57;;;;;;;;;;;2.80;99.90;;;;;;4979995;28;20012;-47
2022/01/08 07:47:24;;;;;;;;;;;2.80;99.90;;;;;;4977402;28;20013;-46
2022/01/08 07:49:50;;;;;;;;;;;2.80;99.90;;;;;;4978490;28;20026;-47
2022/01/08 07:52:18;;;;;;;;;;;2.80;99.90;;;;;;4979352;28;19972;-47
2022/01/08 07:54:44;;;;;;;;;;;2.80;99.90;;;;;;4978860;28;19910;-46
2022/01/08 07:57:11;;;;;;;;;;;2.70;99.90;;;;;;4976969;28;19950;-49
2022/01/08 07:59:38;;;;;;;;;;;2.70;99.90;;;;;;4976179;28;19910;-46
2022/01/08 08:02:04;;;;;;;;;;;2.70;99.90;;;;;;4977737;28;19989;-48
2022/01/08 08:04:31;;;;;;;;;;;2.70;99.90;;;;;;4977429;28;19949;-48
2022/01/08 08:06:58;;;;;;;;;;;2.80;99.90;;;;;;4976989;28;19996;-46
2022/01/08 08:09:25;;;;;;;;;;;2.80;99.90;;;;;;4976444;28;19920;-48
2022/01/08 08:11:51;;;;;;;;;;;2.80;99.90;;;;;;4977028;28;20402;-46
2022/01/08 08:14:18;;;;;;;;;;;2.80;99.90;;;;;;4977101;28;19906;-52
2022/01/08 08:16:45;;;;;;;;;;;2.80;99.90;;;;;;4977230;28;20000;-50
2022/01/08 08:19:10;;;;;;;;;;;2.80;99.90;;;;;;4976546;28;20245;-47
2022/01/08 08:21:37;;;;;;;;;;;2.80;99.90;;;;;;4977598;28;20382;-45
2022/01/08 08:24:06;;;;;;;;;;;2.70;99.90;;;;;;4976897;28;20386;-46
2022/01/08 08:26:36;;;;;;;;;;;2.80;99.90;;;;;;4978070;28;20294;-47
2022/01/08 08:29:03;;;;;;;;;;;2.70;99.90;;;;;;4975081;28;20028;-48
2022/01/08 08:31:30;;;;;;;;;;;2.70;99.90;;;;;;4976005;28;19906;-48
2022/01/08 08:33:57;;;;;;;;;;;2.80;99.90;;;;;;4976702;28;20456;-47
2022/01/08 08:36:24;;;;;;;;;;;2.80;99.90;;;;;;4977059;28;19932;-50
2022/01/08 08:38:51;;;;;;;;;;;2.70;99.90;;;;;;4976744;28;19913;-48
2022/01/08 08:41:18;;;;;;;;;;;2.70;99.90;;;;;;4976046;28;20001;-51
2022/01/08 08:43:45;;;;;;;;;;;2.70;99.90;;;;;;4977446;28;19993;-49
2022/01/08 08:46:10;;;;;;;;;;;2.70;99.90;;;;;;4976299;28;19906;-49
2022/01/08 08:48:37;;;;;;;;;;;2.80;99.90;;;;;;4976694;28;19981;-50
2022/01/08 08:51:04;;;;;;;;;;;2.80;99.90;;;;;;4976404;28;19906;-50
2022/01/08 08:53:30;;;;;;;;;;;2.80;99.90;;;;;;4975500;28;20253;-46
2022/01/08 08:55:56;;;;;;;;;;;2.80;99.90;;;;;;4973518;28;19910;-52
2022/01/08 08:58:22;;;;;;;;;;;2.80;99.90;;;;;;4977666;28;19925;-48
2022/01/08 09:01:03;;;;;;;;;;;2.80;99.90;;;;;;4976759;28;20390;-49
2022/01/08 09:03:30;;;;;;;;;;;2.90;99.90;;;;;;4977123;28;19914;-47
2022/01/08 09:05:56;;;;;;;;;;;2.90;99.90;;;;;;4976537;28;19914;-46
2022/01/08 09:08:23;;;;;;;;;;;2.80;99.90;;;;;;4976586;28;19910;-45
2022/01/08 09:10:50;;;;;;;;;;;2.80;99.90;;;;;;4976235;28;20354;-50
2022/01/08 09:13:16;;;;;;;;;;;2.80;99.90;;;;;;4974736;28;20171;-46
2022/01/08 09:15:43;;;;;;;;;;;2.80;99.90;;;;;;4975476;28;19910;-45
2022/01/08 09:18:10;;;;;;;;;;;2.90;99.90;;;;;;4976393;28;20333;-49
2022/01/08 09:20:37;;;;;;;;;;;2.90;99.90;;;;;;4975909;28;19921;-48
2022/01/08 09:23:05;;;;;;;;;;;3.00;99.90;;;;;;4976244;28;19914;-52
2022/01/08 09:25:30;;;;;;;;;;;3.00;99.90;;;;;;4974806;28;20008;-51
2022/01/08 09:27:56;;;;;;;;;;;3.10;99.90;;;;;;4975610;28;19965;-49
2022/01/08 09:30:22;;;;;;;;;;;3.20;99.90;;;;;;4975410;28;19996;-49
2022/01/08 09:32:48;;;;;;;;;;;3.10;99.90;;;;;;4972239;28;20203;-47
2022/01/08 09:35:15;;;;;;;;;;;3.00;99.90;;;;;;4975734;28;19969;-48
2022/01/08 09:37:41;;;;;;;;;;;3.00;99.90;;;;;;4974825;28;19925;-47
2022/01/08 09:40:09;;;;;;;;;;;3.00;99.90;;;;;;4974291;28;19937;-48
2022/01/08 09:42:36;;;;;;;;;;;3.10;99.90;;;;;;4959137;28;19974;-50
2022/01/08 09:45:03;;;;;;;;;;;3.10;99.90;;;;;;4958163;28;19948;-47
2022/01/08 09:47:29;;;;;;;;;;;3.20;99.90;;;;;;4975229;28;19914;-46
2022/01/08 09:49:56;;;;;;;;;;;3.30;99.90;;;;;;4973812;28;20211;-48
2022/01/08 09:52:22;;;;;;;;;;;3.30;99.90;;;;;;4973711;28;19920;-46
2022/01/08 09:54:48;;;;;;;;;;;3.40;99.90;;;;;;4974786;28;19910;-47
2022/01/08 09:57:15;;;;;;;;;;;3.40;99.90;;;;;;4975441;28;19914;-47
2022/01/08 09:59:42;;;;;;;;;;;3.40;99.90;;;;;;4961111;28;19973;-49
2022/01/08 10:02:09;;;;;;;;;;;3.50;99.90;;;;;;4968025;28;19956;-51
2022/01/08 10:04:36;;;;;;;;;;;3.50;99.90;;;;;;4972078;28;19906;-48
2022/01/08 10:07:20;;;;;;;;;;;3.60;99.90;;;;;;4972491;28;20455;-46
2022/01/08 10:10:10;;;;;;;;;;;3.50;99.90;;;;;;4954134;29;19934;-47
2022/01/08 10:12:36;;;;;;;;;;;3.60;99.90;;;;;;4954606;29;20004;-51
2022/01/08 10:17:48;;;;;;;;;;;3.70;99.90;;;;;;4955130;29;20441;-48
2022/01/08 10:20:31;;;;;;;;;;;3.70;99.90;;;;;;4967974;28;19945;-46
2022/01/08 10:23:22;;;;;;;;;;;3.80;99.90;;;;;;4974879;28;20346;-50
2022/01/08 10:26:07;;;;;;;;;;;3.90;99.90;;;;;;4967000;28;19976;-48
2022/01/08 10:28:44;;;;;;;;;;;4.00;99.90;;;;;;4974182;28;20271;-47
2022/01/08 10:31:14;;;;;;;;;;;4.00;99.90;;;;;;4974647;28;19921;-49
2022/01/08 10:33:43;;;;;;;;;;;4.10;99.90;;;;;;4973576;28;19933;-48
2022/01/08 10:36:12;;;;;;;;;;;4.10;99.90;;;;;;4973404;28;19906;-49
2022/01/08 10:38:38;;;;;;;;;;;4.10;99.90;;;;;;4973149;28;19965;-47
2022/01/08 10:41:12;;;;;;;;;;;4.10;99.90;;;;;;4971957;28;19906;-48
2022/01/08 10:43:39;;;;;;;;;;;4.20;99.90;;;;;;4973295;28;19989;-48
2022/01/08 10:46:22;;;;;;;;;;;4.20;99.90;;;;;;4972968;28;19909;-48
2022/01/08 10:48:49;;;;;;;;;;;4.20;99.90;;;;;;4973457;28;19914;-48
2022/01/08 10:51:26;;;;;;;;;;;4.20;99.90;;;;;;4957707;28;19921;-48
2022/01/08 10:54:11;;;;;;;;;;;4.20;99.90;;;;;;4974121;28;20303;-48
2022/01/08 10:56:42;;;;;;;;;;;4.30;99.90;;;;;;4974976;28;19913;-48
2022/01/08 10:59:22;;;;;;;;;;;4.30;99.90;;;;;;4974372;28;19906;-52
2022/01/08 11:01:58;;;;;;;;;;;4.40;99.90;;;;;;4955892;28;20202;-48
2022/01/08 11:04:33;;;;;;;;;;;4.30;99.90;;;;;;4973894;28;19944;-48
2022/01/08 11:07:20;;;;;;;;;;;4.30;99.90;;;;;;4974135;28;20207;-46
2022/01/08 11:09:48;;;;;;;;;;;4.10;99.90;;;;;;4973419;28;20291;-49
2022/01/08 11:12:16;;;;;;;;;;;4.20;99.90;;;;;;4972052;28;19910;-50
2022/01/08 11:17:29;;;;;;;;;;;4.30;99.90;;;;;;4973907;28;19941;-47
2022/01/08 11:20:01;;;;;;;;;;;4.40;99.90;;;;;;4974618;28;20012;-48
2022/01/08 11:22:29;;;;;;;;;;;4.60;99.90;;;;;;4977009;28;20241;-49
2022/01/08 11:25:32;;;;;;;;;;;4.70;99.90;;;;;;4976286;28;19910;-46
2022/01/08 11:28:00;;;;;;;;;;;4.60;99.90;;;;;;4935822;29;19910;-46
2022/01/08 11:30:50;;;;;;;;;;;4.70;99.90;;;;;;4964237;28;20543;-49
2022/01/08 11:33:20;;;;;;;;;;;4.70;99.90;;;;;;4965915;28;19918;-52
2022/01/08 11:35:48;;;;;;;;;;;4.70;99.90;;;;;;4974217;28;19909;-50
2022/01/08 11:38:18;;;;;;;;;;;4.80;99.90;;;;;;4976388;28;19935;-51
2022/01/08 11:40:45;;;;;;;;;;;4.80;99.90;;;;;;4975329;28;19917;-48
2022/01/08 11:43:13;;;;;;;;;;;4.80;99.90;;;;;;4975746;28;19921;-46
2022/01/08 11:45:43;;;;;;;;;;;4.90;99.90;;;;;;4975423;28;20343;-51
2022/01/08 11:48:11;;;;;;;;;;;4.90;99.90;;;;;;4975615;28;19922;-46
2022/01/08 11:50:37;;;;;;;;;;;4.80;99.90;;;;;;4975577;28;19956;-47
2022/01/08 11:53:18;;;;;;;;;;;4.80;99.90;;;;;;4976059;28;19910;-53
2022/01/08 11:55:50;;;;;;;;;;;4.90;99.90;;;;;;4975062;28;19906;-46
2022/01/08 11:58:27;;;;;;;;;;;5.10;99.90;;;;;;4975540;28;19910;-48
2022/01/08 12:01:01;;;;;;;;;;;5.30;99.90;;;;;;4974964;28;19997;-48
2022/01/08 12:03:45;;;;;;;;;;;5.40;99.90;;;;;;4968014;28;20408;-48
2022/01/08 12:06:31;;;;;;;;;;;5.50;99.90;;;;;;4976666;28;19976;-48
2022/01/08 12:09:18;;;;;;;;;;;5.60;99.90;;;;;;4975708;28;19921;-49
2022/01/08 12:11:47;;;;;;;;;;;5.70;99.90;;;;;;4976172;28;19974;-49
2022/01/08 12:14:20;;;;;;;;;;;5.80;99.90;;;;;;4975428;28;19918;-51
2022/01/08 12:16:48;;;;;;;;;;;5.80;99.90;;;;;;4976385;28;20308;-49
2022/01/08 12:19:31;;;;;;;;;;;5.80;99.90;;;;;;4960656;28;20262;-50
2022/01/08 12:21:59;;;;;;;;;;;5.60;99.90;;;;;;4957283;28;19949;-49
2022/01/08 12:24:30;;;;;;;;;;;5.50;99.90;;;;;;4976605;28;19909;-47
2022/01/08 12:27:02;;;;;;;;;;;5.30;99.90;;;;;;4974579;28;19953;-48
2022/01/08 12:29:38;;;;;;;;;;;5.20;99.90;;;;;;4974603;28;20001;-47
2022/01/08 12:32:31;;;;;;;;;;;5.30;99.90;;;;;;4978772;28;20508;-51
2022/01/08 12:35:03;;;;;;;;;;;5.30;99.90;;;;;;4975169;28;19909;-51
2022/01/08 12:37:36;;;;;;;;;;;5.50;99.90;;;;;;4975161;28;19910;-48
2022/01/08 12:40:02;;;;;;;;;;;5.50;99.90;;;;;;4989902;28;19920;-50
2022/01/08 12:42:28;;;;;;;;;;;5.60;99.90;;;;;;4985109;28;19910;-48
2022/01/08 12:45:02;;;;;;;;;;;5.70;99.90;;;;;;4967133;28;19913;-48
2022/01/08 12:47:38;;;;;;;;;;;5.70;99.90;;;;;;4966352;28;19914;-51
2022/01/08 12:50:19;;;;;;;;;;;5.50;99.90;;;;;;4960238;28;20283;-48
2022/01/08 12:53:03;;;;;;;;;;;5.50;99.90;;;;;;4957920;28;19910;-47
2022/01/08 12:55:31;;;;;;;;;;;5.40;99.90;;;;;;4963276;28;19910;-53
2022/01/08 12:57:57;;;;;;;;;;;5.30;99.90;;;;;;4986200;28;19913;-50
2022/01/08 13:00:23;;;;;;;;;;;5.30;99.90;;;;;;4967248;28;19918;-47
2022/01/08 13:02:51;;;;;;;;;;;5.20;99.90;;;;;;4968268;28;20368;-48
2022/01/08 13:05:18;;;;;;;;;;;5.10;99.90;;;;;;4970512;28;20008;-50
2022/01/08 13:07:52;;;;;;;;;;;5.10;99.90;;;;;;4961723;28;20287;-52
2022/01/08 13:10:19;;;;;;;;;;;5.10;99.90;;;;;;4986999;28;20299;-48
2022/01/08 13:13:02;;;;;;;;;;;5.10;99.90;;;;;;4958551;28;19922;-47
2022/01/08 13:15:30;;;;;;;;;;;5.10;99.90;;;;;;4966240;28;20194;-48
2022/01/08 13:18:31;;;;;;;;;;;5.20;99.90;;;;;;4974112;28;20099;-47
2022/01/08 13:21:01;;;;;;;;;;;5.10;99.90;;;;;;4951675;28;20446;-51
2022/01/08 13:23:27;;;;;;;;;;;5.20;99.90;;;;;;4964388;28;20452;-49
2022/01/08 13:25:55;;;;;;;;;;;5.10;99.90;;;;;;4962429;28;19910;-49
2022/01/08 13:28:23;;;;;;;;;;;5.10;99.90;;;;;;4965373;28;19921;-50
2022/01/08 13:30:50;;;;;;;;;;;5.10;99.90;;;;;;4970048;28;20306;-49
2022/01/08 13:33:24;;;;;;;;;;;5.10;99.90;;;;;;4973165;28;19968;-48
2022/01/08 13:36:09;;;;;;;;;;;5.20;99.90;;;;;;4975732;28;19931;-49
2022/01/08 13:38:36;;;;;;;;;;;5.10;99.90;;;;;;4989203;28;19910;-48
2022/01/08 13:41:14;;;;;;;;;;;5.20;99.90;;;;;;4991634;28;19909;-52
2022/01/08 13:43:54;;;;;;;;;;;5.20;99.90;;;;;;4976586;28;19964;-50
2022/01/08 13:46:20;;;;;;;;;;;5.30;99.90;;;;;;4958987;28;19913;-50
2022/01/08 13:48:46;;;;;;;;;;;5.30;99.90;;;;;;4993810;28;19910;-49
2022/01/08 13:51:12;;;;;;;;;;;5.30;99.90;;;;;;4975724;28;20015;-47
2022/01/08 13:53:38;;;;;;;;;;;5.30;99.90;;;;;;4976255;28;19953;-49
2022/01/08 13:56:05;;;;;;;;;;;5.40;99.90;;;;;;4975518;28;20008;-50
2022/01/08 13:58:34;;;;;;;;;;;5.50;99.90;;;;;;4975930;28;19916;-48
2022/01/08 14:01:09;;;;;;;;;;;5.50;99.90;;;;;;4976915;28;19920;-48
2022/01/08 14:03:47;;;;;;;;;;;5.50;99.90;;;;;;4962106;28;19986;-48
2022/01/08 14:06:27;;;;;;;;;;;5.40;99.90;;;;;;4975654;28;19917;-50
2022/01/08 14:08:58;;;;;;;;;;;5.30;99.90;;;;;;4974662;28;19914;-48
2022/01/08 14:11:25;;;;;;;;;;;5.20;99.90;;;;;;4988740;28;19909;-48
2022/01/08 14:13:54;;;;;;;;;;;5.20;99.90;;;;;;4974103;28;19920;-48
2022/01/08 14:16:26;;;;;;;;;;;5.20;99.90;;;;;;4974387;28;19920;-46
2022/01/08 14:18:52;;;;;;;;;;;5.10;99.90;;;;;;4973913;28;20242;-48
2022/01/08 14:21:18;;;;;;;;;;;5.10;99.90;;;;;;4973478;28;19941;-48
2022/01/08 14:23:47;;;;;;;;;;;5.00;99.90;;;;;;4967560;28;19933;-48
2022/01/08 14:26:18;;;;;;;;;;;5.00;99.90;;;;;;4968828;28;19910;-48
2022/01/08 14:29:05;;;;;;;;;;;4.90;99.90;;;;;;4969901;28;20001;-46
2022/01/08 14:31:32;;;;;;;;;;;4.90;99.90;;;;;;4969178;28;20453;-47
2022/01/08 14:34:00;;;;;;;;;;;4.90;99.90;;;;;;4968442;28;19910;-47
2022/01/08 14:36:53;;;;;;;;;;;4.80;99.90;;;;;;4971170;28;20012;-48
2022/01/08 14:39:36;;;;;;;;;;;4.70;99.90;;;;;;4971031;28;19914;-49
2022/01/08 14:42:11;;;;;;;;;;;4.70;99.90;;;;;;4970917;28;20291;-49
2022/01/08 14:44:38;;;;;;;;;;;4.60;99.90;;;;;;4970146;28;20009;-50
2022/01/08 14:47:04;;;;;;;;;;;4.60;99.90;;;;;;4971372;28;19917;-47
2022/01/08 14:49:36;;;;;;;;;;;4.60;99.90;;;;;;4972186;28;19906;-50
2022/01/08 14:52:01;;;;;;;;;;;4.60;99.90;;;;;;4974588;28;20414;-48
2022/01/08 14:54:31;;;;;;;;;;;4.50;99.90;;;;;;4976496;28;19914;-46
2022/01/08 14:56:58;;;;;;;;;;;4.50;99.90;;;;;;4969002;28;19968;-49
2022/01/08 14:59:23;;;;;;;;;;;4.50;99.90;;;;;;4966034;28;19906;-48
2022/01/08 15:01:49;;;;;;;;;;;4.50;99.90;;;;;;4965754;28;19906;-46
2022/01/08 15:04:14;;;;;;;;;;;4.40;99.90;;;;;;4964111;28;19980;-51
2022/01/08 15:06:40;;;;;;;;;;;4.50;99.90;;;;;;4966579;28;19917;-45
2022/01/08 15:09:05;;;;;;;;;;;4.40;99.90;;;;;;4965328;28;19936;-45
2022/01/08 15:11:31;;;;;;;;;;;4.40;99.90;;;;;;4967506;28;20075;-46